EGGD/BRS METAR and TAF weather

Enter ICAO airport designator
Station Type Date Time Source
EGGD METAR 2022/12/04 10:20 UTC NOAA

EGGD 041020Z AUTO 07012KT 010V080 5000 -RA OVC007 02/01 Q1016 RERA


Station Type Date Time Source
EGGD Decoded METAR 2022/12/04 10:20 UTC NOAA

Bristol / Lulsgate , United Kingdom (EGGD) 51-23N 002-43W
Dec 04, 2022 - 05:20 AM EST / 2022.12.04 1020 UTC
Wind: from the ENE (070 degrees) at 14 MPH (12 KT) (direction variable):0
Visibility: 3 mile(s):0
Sky conditions: overcast
Weather: light rain
Temperature: 35 F (2 C)
Windchill: 26 F (-3 C):1
Dew Point: 33 F (1 C)
Relative Humidity: 93%
Pressure (altimeter): 30.00 in. Hg (1016 hPa)
ob: EGGD 041020Z AUTO 07012KT 010V080 5000 -RA OVC007 02/01 Q1016 RERA
cycle: 10

Station Type Date Time Source
EGGD TAF 2022/12/04 08:59 UTC NOAA

TAF
AMD EGGD 040852Z 0408/0506 05010KT 9999 SCT022
TEMPO 0408/0418 BKN010 PROB30
TEMPO 0408/0416 4000 RADZ BKN007 PROB30
TEMPO 0418/0506 BKN012

Example: see airport list